Time;durP1;ratioP1;P1;durP2;ratioP2;P2;SDS_P1;SDS_P2;PMS_P1;PMS_P2;Temp;Humidity;BMP_temperature;BMP_pressure;BME280_temperature;BME280_humidity;BME280_pressure;Samples;Min_cycle;Max_cycle;Signal;HPM_P1;HPM_P2
2022/08/14 00:00:36;;;;;;;3.28;2.20;;;21.40;74.70;;;;;;5074927;28;20030;-91
2022/08/14 00:03:01;;;;;;;3.45;2.03;;;21.30;74.70;;;;;;5082983;28;20036;-92
2022/08/14 00:05:27;;;;;;;4.88;2.33;;;21.30;75.00;;;;;;5077737;28;20012;-91
2022/08/14 00:07:52;;;;;;;3.33;2.58;;;21.20;75.20;;;;;;5073457;28;20024;-92
2022/08/14 00:10:20;;;;;;;3.97;2.47;;;21.20;75.30;;;;;;5075575;28;20024;-92
2022/08/14 00:12:52;;;;;;;7.60;2.90;;;21.30;75.70;;;;;;5075214;28;20542;-92
2022/08/14 00:15:30;;;;;;;3.70;2.75;;;21.20;75.80;;;;;;5068784;28;20052;-91
2022/08/14 00:17:56;;;;;;;3.83;2.08;;;21.20;75.80;;;;;;5068699;28;20028;-90
2022/08/14 00:20:26;;;;;;;3.85;2.50;;;21.20;75.90;;;;;;5067665;28;20031;-91
2022/08/14 00:22:52;;;;;;;4.00;2.42;;;21.20;76.00;;;;;;5075200;28;20349;-91
2022/08/14 00:25:18;;;;;;;6.25;2.60;;;21.20;76.10;;;;;;5075111;28;20028;-92
2022/08/14 00:27:44;;;;;;;5.15;2.60;;;21.20;76.30;;;;;;5072782;28;20042;-92
2022/08/14 00:30:11;;;;;;;2.47;2.13;;;21.20;76.40;;;;;;5070701;28;20033;-91
2022/08/14 00:32:37;;;;;;;4.22;2.10;;;21.10;77.00;;;;;;5073338;28;20487;-91
2022/08/14 00:35:04;;;;;;;3.17;2.30;;;21.10;77.40;;;;;;5075104;28;20110;-90
2022/08/14 00:37:31;;;;;;;2.30;2.10;;;21.00;77.60;;;;;;5074756;28;20058;-91
2022/08/14 00:39:57;;;;;;;3.13;2.28;;;21.00;77.70;;;;;;5072951;28;20040;-91
2022/08/14 00:42:22;;;;;;;4.60;2.50;;;21.00;78.00;;;;;;5072220;28;20063;-91
2022/08/14 00:44:48;;;;;;;4.15;2.90;;;20.90;77.80;;;;;;5057628;28;20067;-92
2022/08/14 00:47:16;;;;;;;5.05;2.75;;;21.00;77.90;;;;;;5063060;28;20214;-92
2022/08/14 00:49:43;;;;;;;3.17;2.38;;;20.90;77.80;;;;;;5065650;28;20028;-91
2022/08/14 00:52:10;;;;;;;3.63;2.45;;;20.90;78.00;;;;;;5073841;28;20038;-92
2022/08/14 00:54:37;;;;;;;5.72;3.00;;;20.80;78.40;;;;;;5067803;28;20035;-91
2022/08/14 00:57:04;;;;;;;3.35;2.83;;;20.70;78.80;;;;;;5072695;28;20020;-90
2022/08/14 00:59:30;;;;;;;4.30;2.33;;;20.70;79.20;;;;;;5070613;28;20024;-91
2022/08/14 01:01:59;;;;;;;4.78;2.42;;;20.60;79.60;;;;;;5074430;28;20028;-91
2022/08/14 01:04:26;;;;;;;5.15;2.75;;;20.60;79.70;;;;;;5074824;28;20541;-90
2022/08/14 01:06:52;;;;;;;3.55;2.80;;;20.60;80.00;;;;;;5072901;28;20024;-90
2022/08/14 01:09:21;;;;;;;5.13;2.90;;;20.50;80.00;;;;;;5073215;28;20034;-91
2022/08/14 01:11:51;;;;;;;4.78;2.55;;;20.50;80.50;;;;;;5066693;28;20051;-91
2022/08/14 01:14:18;;;;;;;2.47;1.85;;;20.50;80.40;;;;;;5075247;28;20080;-91
2022/08/14 01:16:44;;;;;;;3.60;2.58;;;20.50;80.50;;;;;;5074135;28;20031;-92
2022/08/14 01:21:54;;;;;;;5.20;2.60;;;20.40;81.20;;;;;;5088313;28;20519;-91
2022/08/14 01:24:24;;;;;;;3.33;2.33;;;20.40;81.40;;;;;;5072175;28;20032;-90
2022/08/14 01:26:50;;;;;;;4.72;2.38;;;20.30;81.90;;;;;;5069668;28;20181;-91
2022/08/14 01:29:18;;;;;;;3.78;2.70;;;20.20;82.20;;;;;;5071948;28;20024;-90
2022/08/14 01:31:45;;;;;;;3.40;2.83;;;20.20;82.60;;;;;;5072161;28;20036;-90
2022/08/14 01:34:11;;;;;;;3.25;2.63;;;20.10;82.60;;;;;;5075222;28;20111;-89
2022/08/14 01:36:38;;;;;;;4.85;2.80;;;20.10;82.60;;;;;;5072896;28;20024;-90
2022/08/14 01:39:12;;;;;;;3.83;2.83;;;20.10;82.70;;;;;;5073738;28;20043;-89
2022/08/14 01:41:39;;;;;;;4.18;3.08;;;20.10;82.70;;;;;;5093792;28;20105;-90
2022/08/14 01:44:11;;;;;;;4.03;2.25;;;20.10;83.50;;;;;;5075392;28;20031;-90
2022/08/14 01:46:39;;;;;;;3.72;2.72;;;20.10;83.20;;;;;;5085373;28;20028;-90
2022/08/14 01:49:08;;;;;;;3.60;3.10;;;20.10;83.20;;;;;;5075767;28;20040;-91
2022/08/14 01:51:35;;;;;;;3.97;3.15;;;20.10;83.50;;;;;;5073848;28;20029;-91
2022/08/14 01:54:13;;;;;;;6.47;3.00;;;20.00;83.90;;;;;;5063602;28;20494;-90
2022/08/14 01:56:39;;;;;;;4.53;3.05;;;19.90;84.20;;;;;;5077801;28;20028;-90
2022/08/14 01:59:25;;;;;;;9.23;3.42;;;19.90;84.60;;;;;;5074476;28;20119;-89
2022/08/14 02:01:53;;;;;;;3.30;2.97;;;19.80;84.90;;;;;;5075084;28;20480;-89
2022/08/14 02:04:20;;;;;;;3.53;2.95;;;19.80;85.30;;;;;;5086256;28;20076;-90
2022/08/14 02:06:49;;;;;;;6.68;3.47;;;19.80;85.50;;;;;;5077840;28;20037;-91
2022/08/14 02:09:15;;;;;;;6.55;3.25;;;19.70;86.50;;;;;;5068625;28;20677;-90
2022/08/14 02:11:40;;;;;;;5.53;3.60;;;19.60;86.10;;;;;;5072932;28;20039;-91
2022/08/14 02:14:09;;;;;;;6.78;3.08;;;19.50;86.50;;;;;;5065884;28;20012;-90
2022/08/14 02:16:46;;;;;;;4.25;3.30;;;19.50;86.80;;;;;;5077149;28;20067;-90
2022/08/14 02:19:15;;;;;;;3.53;3.20;;;19.50;87.10;;;;;;5090998;28;20076;-90
2022/08/14 02:21:43;;;;;;;4.43;3.28;;;19.50;87.40;;;;;;5066439;28;20040;-90
2022/08/14 02:24:10;;;;;;;4.82;3.20;;;19.40;87.60;;;;;;5094658;28;20028;-91
2022/08/14 02:26:38;;;;;;;4.95;3.63;;;19.40;88.00;;;;;;5076029;28;20097;-90
2022/08/14 02:29:08;;;;;;;4.35;3.83;;;19.40;88.40;;;;;;5077575;28;20039;-91
2022/08/14 02:31:37;;;;;;;5.57;3.83;;;19.30;88.70;;;;;;5074990;28;20123;-89
2022/08/14 02:34:06;;;;;;;5.20;3.50;;;19.30;89.10;;;;;;5064782;28;20078;-91
2022/08/14 02:36:32;;;;;;;4.20;3.38;;;19.20;89.40;;;;;;5065274;28;20032;-90
2022/08/14 02:38:57;;;;;;;5.43;4.30;;;19.20;90.00;;;;;;5076360;28;20044;-90
2022/08/14 02:41:24;;;;;;;8.80;4.60;;;19.10;90.10;;;;;;5074888;28;20128;-91
2022/08/14 02:43:49;;;;;;;6.72;4.38;;;19.10;90.30;;;;;;5064595;28;20032;-91
2022/08/14 02:46:16;;;;;;;6.05;4.95;;;19.10;90.50;;;;;;5084199;28;20025;-90
2022/08/14 02:48:42;;;;;;;5.88;4.15;;;19.00;90.70;;;;;;5074999;28;20069;-91
2022/08/14 02:51:12;;;;;;;5.97;4.97;;;19.00;90.90;;;;;;5071853;28;20028;-92
2022/08/14 02:53:41;;;;;;;5.65;4.13;;;19.00;91.10;;;;;;5076932;28;20028;-91
2022/08/14 02:56:09;;;;;;;4.80;4.35;;;18.90;91.30;;;;;;5076068;28;20024;-91
2022/08/14 02:58:38;;;;;;;8.73;4.30;;;18.90;91.60;;;;;;5073373;28;20028;-91
2022/08/14 03:01:05;;;;;;;5.75;4.40;;;18.90;91.80;;;;;;5078842;28;20020;-91
2022/08/14 03:03:31;;;;;;;5.63;4.55;;;18.80;92.00;;;;;;5082304;28;20036;-90
2022/08/14 03:05:56;;;;;;;6.85;4.80;;;18.70;92.20;;;;;;5075730;28;20027;-91
2022/08/14 03:08:30;;;;;;;9.75;5.80;;;18.70;92.50;;;;;;5085098;28;20035;-90
2022/08/14 03:10:56;;;;;;;6.10;5.13;;;18.60;92.80;;;;;;5073742;28;20048;-90
2022/08/14 03:13:22;;;;;;;6.13;5.30;;;18.60;93.10;;;;;;5076575;28;20127;-89
2022/08/14 03:15:51;;;;;;;5.25;4.72;;;18.50;93.30;;;;;;5077121;28;20052;-88
2022/08/14 03:18:17;;;;;;;7.88;5.75;;;18.50;93.50;;;;;;5076425;28;20024;-90
2022/08/14 03:20:42;;;;;;;7.45;6.43;;;18.40;93.80;;;;;;5075855;28;20077;-90
2022/08/14 03:23:08;;;;;;;7.25;6.40;;;18.30;94.10;;;;;;5077356;28;20089;-89
2022/08/14 03:25:34;;;;;;;7.22;6.53;;;18.30;94.30;;;;;;5088885;28;20038;-91
2022/08/14 03:28:05;;;;;;;7.47;6.68;;;18.20;94.70;;;;;;5076032;28;20035;-91
2022/08/14 03:30:32;;;;;;;6.93;5.97;;;18.30;95.00;;;;;;5076655;28;20110;-90
2022/08/14 03:32:58;;;;;;;8.30;6.60;;;18.20;95.10;;;;;;5074832;28;20126;-91
2022/08/14 03:35:24;;;;;;;7.70;6.78;;;18.20;95.40;;;;;;5075844;28;20024;-91
2022/08/14 03:37:51;;;;;;;9.45;7.32;;;18.20;95.60;;;;;;5089005;28;20103;-91
2022/08/14 03:40:21;;;;;;;9.27;7.00;;;18.20;95.90;;;;;;5078487;28;20044;-91
2022/08/14 03:42:47;;;;;;;8.30;7.03;;;18.20;96.00;;;;;;5072012;28;20031;-91
2022/08/14 03:45:14;;;;;;;9.73;7.20;;;18.30;96.20;;;;;;5074191;28;20024;-92
2022/08/14 03:47:40;;;;;;;7.00;6.30;;;18.30;96.30;;;;;;5072379;28;20028;-91
2022/08/14 03:50:10;;;;;;;9.70;7.47;;;18.30;96.40;;;;;;5076557;28;20054;-91
2022/08/14 03:52:37;;;;;;;9.48;7.28;;;18.30;96.50;;;;;;5069336;28;20044;-91
2022/08/14 03:55:05;;;;;;;11.15;8.10;;;18.20;96.80;;;;;;5069115;28;20170;-91
2022/08/14 03:57:34;;;;;;;8.13;7.30;;;18.30;96.90;;;;;;5074674;28;20040;-91
2022/08/14 04:00:07;;;;;;;9.20;8.30;;;18.30;97.10;;;;;;5073522;28;20519;-91
2022/08/14 04:02:33;;;;;;;7.82;7.03;;;18.20;97.20;;;;;;5090708;28;20046;-91
2022/08/14 04:04:59;;;;;;;10.20;7.47;;;18.20;97.30;;;;;;5083939;28;20020;-91
2022/08/14 04:07:24;;;;;;;7.93;7.13;;;18.20;97.40;;;;;;5076500;28;20115;-91
2022/08/14 04:09:50;;;;;;;8.63;6.85;;;18.10;97.50;;;;;;5072022;28;20623;-92
2022/08/14 04:12:18;;;;;;;11.63;7.97;;;18.10;97.80;;;;;;5074717;28;20057;-91
2022/08/14 04:14:44;;;;;;;9.45;8.20;;;18.10;98.00;;;;;;5080041;28;20054;-91
2022/08/14 04:17:10;;;;;;;9.02;7.85;;;18.00;98.20;;;;;;5075267;28;20063;-90
2022/08/14 04:19:36;;;;;;;11.45;8.60;;;18.00;98.30;;;;;;5073883;28;20024;-91
2022/08/14 04:22:02;;;;;;;10.25;7.22;;;18.00;98.50;;;;;;5094299;28;20030;-91
2022/08/14 04:24:28;;;;;;;8.38;7.35;;;17.90;98.70;;;;;;5085196;28;20017;-93
2022/08/14 04:26:54;;;;;;;10.30;8.90;;;17.90;98.80;;;;;;5070206;28;20035;-91
2022/08/14 04:29:20;;;;;;;9.73;8.65;;;17.90;99.00;;;;;;5075944;28;20032;-92
2022/08/14 04:31:49;;;;;;;14.27;8.88;;;17.80;99.20;;;;;;5076197;28;20123;-90
2022/08/14 04:34:15;;;;;;;11.15;9.88;;;17.80;99.40;;;;;;5077565;28;20024;-90
2022/08/14 04:44:53;;;;;;;11.23;8.52;;;17.80;99.90;;;;;;5091954;28;20043;-90
2022/08/14 04:50:04;;;;;;;10.63;9.52;;;17.70;99.90;;;;;;5091605;28;20085;-90
2022/08/14 04:52:29;;;;;;;14.82;10.25;;;17.80;99.90;;;;;;5069361;28;20086;-91
2022/08/14 04:54:56;;;;;;;10.30;9.25;;;17.80;99.90;;;;;;5073288;28;20029;-91
2022/08/14 04:57:22;;;;;;;14.23;10.48;;;17.80;99.90;;;;;;5075092;28;20016;-93
2022/08/14 04:59:47;;;;;;;10.57;9.57;;;17.80;99.90;;;;;;5075598;28;20024;-91
2022/08/14 05:02:15;;;;;;;11.88;10.00;;;17.90;99.90;;;;;;5075149;28;20107;-91
2022/08/14 05:04:41;;;;;;;11.52;10.32;;;17.90;99.90;;;;;;5076664;28;20058;-91
2022/08/14 05:07:06;;;;;;;12.57;9.93;;;18.00;99.90;;;;;;5070322;28;20445;-91
2022/08/14 05:09:32;;;;;;;12.38;10.07;;;18.00;99.90;;;;;;5072489;28;20119;-90
2022/08/14 05:11:59;;;;;;;13.70;9.95;;;18.10;99.90;;;;;;5058954;28;20079;-91
2022/08/14 05:14:26;;;;;;;14.23;10.20;;;18.20;99.90;;;;;;5074459;28;20052;-91
2022/08/14 05:16:52;;;;;;;11.23;9.65;;;18.20;99.90;;;;;;5073378;28;20369;-91
2022/08/14 05:19:18;;;;;;;15.55;11.07;;;18.30;99.90;;;;;;5074306;28;20035;-91
2022/08/14 05:21:43;;;;;;;12.52;11.15;;;18.30;99.90;;;;;;5074831;28;20028;-91
2022/08/14 05:24:11;;;;;;;12.85;9.95;;;18.30;99.90;;;;;;5072334;28;20032;-91
2022/08/14 05:26:40;;;;;;;12.38;10.30;;;18.40;99.90;;;;;;5073914;28;20030;-91
2022/08/14 05:29:08;;;;;;;13.15;9.73;;;18.40;99.90;;;;;;5075837;28;20064;-91
2022/08/14 05:31:36;;;;;;;13.55;10.95;;;18.50;99.90;;;;;;5077143;28;20043;-92
2022/08/14 05:34:01;;;;;;;12.50;9.90;;;18.60;99.90;;;;;;5087053;28;20110;-92
2022/08/14 05:36:27;;;;;;;12.07;9.93;;;18.70;99.90;;;;;;5077251;28;20066;-91
2022/08/14 05:38:53;;;;;;;13.35;10.63;;;18.70;99.90;;;;;;5076659;28;20043;-91
2022/08/14 05:41:19;;;;;;;14.27;11.05;;;18.80;99.90;;;;;;5075046;28;20028;-92
2022/08/14 05:43:46;;;;;;;13.35;10.55;;;18.90;99.90;;;;;;5077517;28;20024;-93
2022/08/14 05:46:14;;;;;;;12.23;10.93;;;18.90;99.90;;;;;;5077448;28;20023;-92
2022/08/14 05:48:40;;;;;;;14.60;11.77;;;19.10;99.90;;;;;;5082831;28;20035;-92
2022/08/14 05:51:05;;;;;;;13.88;12.43;;;19.10;99.90;;;;;;5079814;28;20024;-90
2022/08/14 05:53:31;;;;;;;12.32;11.05;;;19.30;99.90;;;;;;5078062;28;20035;-89
2022/08/14 05:55:58;;;;;;;12.13;10.93;;;19.30;99.90;;;;;;5075935;28;20020;-89
2022/08/14 05:58:24;;;;;;;12.70;11.40;;;19.50;99.90;;;;;;5074600;28;20111;-90
2022/08/14 06:00:50;;;;;;;11.68;10.50;;;19.60;99.90;;;;;;5069011;28;20032;-90
2022/08/14 06:03:18;;;;;;;12.65;11.35;;;19.70;99.90;;;;;;5074085;28;20028;-89
2022/08/14 06:05:45;;;;;;;12.52;11.23;;;19.80;99.90;;;;;;5074235;28;20013;-89
2022/08/14 06:08:17;;;;;;;13.55;11.70;;;19.90;99.90;;;;;;5078146;28;20142;-89
2022/08/14 06:10:43;;;;;;;13.73;10.50;;;20.00;99.90;;;;;;5073865;28;20109;-90
2022/08/14 06:13:09;;;;;;;12.20;10.57;;;20.10;99.90;;;;;;5076084;28;20032;-90
2022/08/14 06:15:35;;;;;;;13.18;11.60;;;20.20;99.90;;;;;;5075378;28;20092;-90
2022/08/14 06:18:00;;;;;;;12.30;10.77;;;20.40;99.90;;;;;;5078221;28;20480;-90
2022/08/14 06:20:27;;;;;;;10.32;9.25;;;20.60;99.90;;;;;;5078196;28;20016;-89
2022/08/14 06:22:52;;;;;;;12.93;10.73;;;20.70;99.90;;;;;;5072120;28;20492;-90
2022/08/14 06:25:18;;;;;;;11.05;9.95;;;20.90;99.60;;;;;;5074804;28;20043;-89
2022/08/14 06:27:46;;;;;;;15.68;9.15;;;21.00;99.30;;;;;;5068128;28;20024;-90
2022/08/14 06:30:17;;;;;;;12.77;9.80;;;21.10;99.00;;;;;;5072180;28;20043;-88
2022/08/14 06:32:43;;;;;;;12.18;8.82;;;21.30;98.60;;;;;;5071892;28;20919;-90
2022/08/14 06:35:10;;;;;;;10.52;9.43;;;21.40;98.30;;;;;;5061675;28;20186;-90
2022/08/14 06:37:57;;;;;;;9.98;8.82;;;21.50;98.00;;;;;;5072502;28;20024;-89
2022/08/14 06:40:30;;;;;;;13.25;9.30;;;21.70;97.80;;;;;;5070386;28;20142;-89
2022/08/14 06:43:00;;;;;;;9.15;8.00;;;21.80;97.50;;;;;;5066806;28;20361;-89
2022/08/14 06:45:27;;;;;;;11.00;8.20;;;21.90;97.20;;;;;;5082465;28;20472;-89
2022/08/14 06:47:53;;;;;;;8.18;7.18;;;22.10;96.90;;;;;;5059978;28;20361;-89
2022/08/14 06:50:20;;;;;;;10.40;7.53;;;22.20;96.70;;;;;;5063810;28;20021;-88
2022/08/14 06:52:46;;;;;;;8.23;7.30;;;22.40;96.60;;;;;;5066320;28;20124;-89
2022/08/14 06:55:14;;;;;;;7.43;6.00;;;22.50;96.40;;;;;;5074161;28;20424;-90
2022/08/14 06:57:48;;;;;;;6.72;6.03;;;22.60;96.10;;;;;;5069235;28;20048;-88
2022/08/14 07:00:17;;;;;;;7.75;6.13;;;22.70;95.90;;;;;;5066027;28;20059;-90
2022/08/14 07:05:46;;;;;;;7.47;5.47;;;23.00;95.10;;;;;;5081131;28;20035;-90
2022/08/14 07:08:14;;;;;;;6.97;5.32;;;23.20;94.80;;;;;;5069270;28;20059;-91
2022/08/14 07:10:42;;;;;;;8.05;5.13;;;23.30;94.30;;;;;;5061707;28;20032;-89
2022/08/14 07:13:10;;;;;;;5.13;4.45;;;23.50;93.90;;;;;;5061599;28;20036;-92
2022/08/14 07:15:36;;;;;;;6.40;4.50;;;23.70;93.40;;;;;;5069301;28;20032;-91
2022/08/14 07:18:03;;;;;;;6.15;4.68;;;23.80;93.00;;;;;;5068122;28;20028;-92
2022/08/14 07:20:29;;;;;;;6.03;4.88;;;24.00;92.60;;;;;;5069531;28;20127;-92
2022/08/14 07:22:57;;;;;;;4.85;4.35;;;24.10;91.90;;;;;;5073136;28;20067;-93
2022/08/14 07:25:24;;;;;;;8.52;5.07;;;24.20;91.90;;;;;;5070856;28;20476;-92
2022/08/14 07:27:50;;;;;;;5.93;5.07;;;24.30;91.60;;;;;;5068989;28;20411;-92
2022/08/14 07:30:16;;;;;;;4.43;4.03;;;24.40;91.40;;;;;;5073133;28;20036;-92
2022/08/14 07:32:41;;;;;;;5.40;3.90;;;24.60;91.10;;;;;;5071057;28;20050;-93
2022/08/14 07:35:07;;;;;;;5.63;4.22;;;24.70;90.70;;;;;;5076784;28;20024;-92
2022/08/14 07:37:32;;;;;;;5.60;4.22;;;24.90;90.50;;;;;;5077510;28;20034;-93
2022/08/14 07:39:58;;;;;;;11.30;4.53;;;25.00;90.20;;;;;;5075920;28;20044;-93
2022/08/14 07:42:24;;;;;;;6.05;4.15;;;25.10;90.00;;;;;;5075277;28;20679;-93
2022/08/14 07:44:50;;;;;;;4.53;3.92;;;25.20;89.60;;;;;;5075589;28;20020;-96
2022/08/14 07:47:17;;;;;;;5.63;4.40;;;25.30;88.70;;;;;;5082866;28;20108;-94
2022/08/14 07:49:57;;;;;;;7.00;3.95;;;25.30;87.40;;;;;;5079715;28;20024;-94
2022/08/14 07:52:23;;;;;;;6.15;4.07;;;25.40;87.10;;;;;;5092533;28;20078;-96
2022/08/14 07:54:49;;;;;;;5.10;3.97;;;25.50;86.40;;;;;;5077336;28;20016;-96
2022/08/14 07:57:16;;;;;;;5.97;4.47;;;25.60;85.40;;;;;;5086245;28;20024;-95
2022/08/14 07:59:42;;;;;;;5.57;3.78;;;25.60;85.60;;;;;;5077511;28;20050;-95
2022/08/14 08:02:10;;;;;;;5.00;3.67;;;25.80;84.90;;;;;;5084847;28;20035;-96
2022/08/14 08:04:41;;;;;;;5.25;4.05;;;25.90;84.60;;;;;;5080736;28;20119;-95
2022/08/14 08:07:07;;;;;;;4.68;3.58;;;25.90;83.40;;;;;;5082537;28;20391;-95
2022/08/14 08:09:35;;;;;;;6.55;3.80;;;26.00;83.10;;;;;;5090004;28;20032;-96
2022/08/14 08:12:02;;;;;;;5.80;3.97;;;26.10;82.70;;;;;;5067088;28;20028;-95
2022/08/14 08:14:29;;;;;;;4.78;3.47;;;26.20;82.50;;;;;;5075502;28;20029;-95
2022/08/14 08:16:56;;;;;;;4.80;4.20;;;26.40;82.10;;;;;;5071700;28;20017;-95
2022/08/14 08:19:22;;;;;;;5.70;3.88;;;26.50;81.40;;;;;;5071721;28;20051;-96
2022/08/14 08:21:47;;;;;;;4.25;3.85;;;26.60;81.20;;;;;;5070937;28;20052;-94
2022/08/14 08:24:14;;;;;;;6.03;3.95;;;26.70;80.70;;;;;;5071725;28;20028;-94
2022/08/14 08:26:40;;;;;;;6.13;4.10;;;26.80;80.00;;;;;;5072170;28;20483;-93
2022/08/14 08:29:06;;;;;;;3.60;3.22;;;26.90;79.20;;;;;;5061536;28;20020;-95
2022/08/14 08:31:31;;;;;;;4.32;3.70;;;27.00;78.90;;;;;;5071410;28;20032;-95
2022/08/14 08:33:57;;;;;;;8.27;4.28;;;27.00;78.60;;;;;;5072108;28;20028;-95
2022/08/14 08:36:22;;;;;;;4.45;4.03;;;27.10;77.80;;;;;;5067557;28;20380;-93
2022/08/14 08:38:49;;;;;;;5.93;3.78;;;27.20;77.30;;;;;;5066879;28;20044;-94
2022/08/14 08:41:15;;;;;;;5.38;4.10;;;27.30;77.00;;;;;;5069364;28;20028;-95
2022/08/14 08:43:40;;;;;;;4.10;3.70;;;27.30;76.60;;;;;;5072220;28;20032;-93
2022/08/14 08:46:15;;;;;;;6.60;3.55;;;27.40;75.80;;;;;;5064779;28;22075;-95
2022/08/14 08:48:50;;;;;;;4.65;3.78;;;27.50;75.70;;;;;;5067913;28;20081;-92
2022/08/14 08:51:29;;;;;;;4.30;3.85;;;27.60;75.60;;;;;;5065493;28;20016;-94
2022/08/14 08:53:55;;;;;;;5.68;4.07;;;27.70;75.10;;;;;;5068551;28;20492;-94
2022/08/14 08:56:36;;;;;;;7.78;3.97;;;27.80;75.00;;;;;;5078945;28;20245;-95
2022/08/14 08:59:14;;;;;;;5.03;3.97;;;27.90;74.70;;;;;;5078856;28;20568;-95
2022/08/14 09:01:39;;;;;;;4.90;3.58;;;27.90;74.10;;;;;;5080980;28;20047;-95
2022/08/14 09:04:05;;;;;;;6.60;3.97;;;28.00;73.70;;;;;;5060791;28;20024;-92
2022/08/14 09:06:31;;;;;;;4.68;4.25;;;28.20;73.10;;;;;;5069960;28;20357;-91
2022/08/14 09:08:56;;;;;;;6.00;5.40;;;28.20;72.90;;;;;;5069505;28;20058;-91
2022/08/14 09:11:23;;;;;;;4.90;3.85;;;28.20;73.30;;;;;;5069240;28;20028;-90
2022/08/14 09:13:52;;;;;;;6.28;5.05;;;28.20;73.20;;;;;;5067928;28;20035;-92
2022/08/14 09:16:23;;;;;;;5.47;4.97;;;28.30;73.20;;;;;;5067383;28;20109;-92
2022/08/14 09:18:49;;;;;;;7.22;4.57;;;28.40;73.50;;;;;;5065428;28;20161;-92
2022/08/14 09:21:15;;;;;;;7.65;5.72;;;28.40;73.40;;;;;;5057066;28;20123;-92
2022/08/14 09:23:41;;;;;;;6.75;5.88;;;28.50;73.30;;;;;;5059177;28;20054;-91
2022/08/14 09:26:06;;;;;;;6.22;5.63;;;28.50;72.90;;;;;;5067699;28;20063;-93
2022/08/14 09:28:32;;;;;;;5.78;4.68;;;28.50;73.00;;;;;;5063876;28;20039;-93
2022/08/14 09:30:58;;;;;;;6.00;4.95;;;28.60;73.30;;;;;;5067450;28;20472;-93
2022/08/14 09:33:53;;;;;;;6.85;4.60;;;28.70;72.30;;;;;;5061154;28;20566;-92
2022/08/14 09:36:45;;;;;;;8.20;4.75;;;28.80;71.50;;;;;;5031877;28;20029;-92
2022/08/14 09:39:35;;;;;;;6.80;4.25;;;28.80;71.00;;;;;;5067759;28;20044;-91
2022/08/14 09:42:33;;;;;;;4.97;4.35;;;28.90;70.90;;;;;;5062677;28;20036;-93
2022/08/14 09:45:14;;;;;;;5.05;4.47;;;29.00;70.30;;;;;;5064527;28;20077;-91
2022/08/14 09:47:44;;;;;;;5.15;4.60;;;29.20;70.20;;;;;;5066516;28;20024;-92
2022/08/14 09:50:19;;;;;;;5.03;4.63;;;29.30;70.40;;;;;;5081293;28;20036;-93
2022/08/14 09:53:03;;;;;;;6.72;5.32;;;29.40;70.00;;;;;;5060585;28;20062;-91
2022/08/14 09:55:34;;;;;;;5.60;4.30;;;29.40;69.70;;;;;;5065565;28;20033;-90
2022/08/14 09:58:37;;;;;;;6.70;5.85;;;29.50;69.40;;;;;;5078501;28;20038;-89
2022/08/14 10:01:12;;;;;;;5.18;4.75;;;29.50;68.60;;;;;;5060070;28;20036;-90
2022/08/14 10:03:55;;;;;;;6.22;4.45;;;29.60;68.80;;;;;;5074683;28;20024;-90
2022/08/14 10:06:26;;;;;;;5.75;4.68;;;29.70;69.00;;;;;;5062447;28;20035;-90
2022/08/14 10:08:56;;;;;;;4.35;3.95;;;29.80;68.00;;;;;;5072511;28;20062;-90
2022/08/14 10:11:28;;;;;;;5.88;4.38;;;29.80;67.90;;;;;;5078911;28;20131;-89
2022/08/14 10:14:01;;;;;;;5.03;4.35;;;29.90;67.40;;;;;;5073886;28;20028;-87
2022/08/14 10:16:29;;;;;;;5.50;4.20;;;30.00;66.70;;;;;;5073743;28;20033;-90
2022/08/14 10:19:10;;;;;;;4.75;3.90;;;30.10;66.20;;;;;;5072415;28;20032;-90
2022/08/14 10:21:37;;;;;;;;;;;30.10;65.10;;;;;;5076249;28;20521;-91
2022/08/14 10:24:04;;;;;;;4.22;3.83;;;30.20;65.00;;;;;;5093180;28;19958;-91
2022/08/14 10:26:30;;;;;;;3.83;3.30;;;30.20;64.90;;;;;;5081519;28;20074;-90
2022/08/14 10:29:06;;;;;;;4.43;3.40;;;30.30;64.50;;;;;;5079789;28;20027;-92
2022/08/14 10:31:33;;;;;;;4.63;3.28;;;30.50;63.60;;;;;;5062585;28;20043;-92
2022/08/14 10:34:07;;;;;;;5.32;2.97;;;30.60;61.80;;;;;;5069860;28;20081;-92
2022/08/14 10:36:38;;;;;;;3.55;3.22;;;30.60;62.10;;;;;;5071648;28;20028;-91
2022/08/14 10:39:16;;;;;;;3.67;3.28;;;30.70;62.20;;;;;;5085666;28;20115;-92
2022/08/14 10:41:43;;;;;;;4.28;3.58;;;30.80;61.60;;;;;;5085577;28;20119;-91
2022/08/14 10:44:17;;;;;;;3.00;2.45;;;30.70;61.40;;;;;;5087473;28;20024;-89
2022/08/14 10:46:44;;;;;;;3.25;2.95;;;30.70;60.40;;;;;;5074700;28;20566;-91
2022/08/14 10:49:19;;;;;;;3.28;2.97;;;30.70;60.00;;;;;;5074280;28;20448;-91
2022/08/14 10:52:07;;;;;;;3.83;3.25;;;30.80;59.10;;;;;;5065582;28;20132;-90
2022/08/14 10:54:41;;;;;;;4.65;2.58;;;30.90;59.30;;;;;;5071095;28;20036;-90
2022/08/14 10:57:24;;;;;;;4.72;2.90;;;30.90;58.30;;;;;;5072977;28;20028;-90
2022/08/14 10:59:55;;;;;;;3.25;2.75;;;31.00;58.40;;;;;;5073304;28;20032;-90
2022/08/14 11:02:35;;;;;;;3.42;2.17;;;31.10;58.40;;;;;;5072651;28;20024;-90
2022/08/14 11:05:06;;;;;;;2.95;2.63;;;31.20;58.20;;;;;;5065371;28;20495;-89
2022/08/14 11:07:35;;;;;;;4.20;2.17;;;31.30;57.90;;;;;;5070647;28;20036;-89
2022/08/14 11:10:05;;;;;;;2.95;2.10;;;31.40;57.10;;;;;;5073578;28;20502;-90
2022/08/14 11:12:58;;;;;;;2.97;2.23;;;31.50;56.80;;;;;;5066013;28;20035;-89
2022/08/14 11:15:26;;;;;;;3.15;2.30;;;31.50;56.30;;;;;;5072551;28;20041;-93
2022/08/14 11:17:52;;;;;;;4.38;2.33;;;31.50;56.00;;;;;;5067752;28;20052;-90
2022/08/14 11:20:29;;;;;;;3.85;2.13;;;31.60;55.60;;;;;;5073159;28;20020;-94
2022/08/14 11:22:59;;;;;;;5.50;2.35;;;31.60;55.50;;;;;;5063811;28;20083;-89
2022/08/14 11:25:30;;;;;;;4.60;2.72;;;31.60;54.50;;;;;;5072126;28;20025;-92
2022/08/14 11:27:57;;;;;;;2.38;1.98;;;31.70;54.80;;;;;;5073490;28;20028;-90
2022/08/14 11:30:26;;;;;;;2.65;2.30;;;31.70;54.40;;;;;;5073911;28;20024;-90
2022/08/14 11:32:53;;;;;;;2.42;1.92;;;31.80;53.40;;;;;;5094056;28;20036;-91
2022/08/14 11:35:25;;;;;;;2.70;1.90;;;31.80;53.40;;;;;;5082098;28;20021;-90
2022/08/14 11:38:00;;;;;;;3.58;2.03;;;31.80;53.60;;;;;;5067130;28;20123;-92
2022/08/14 11:40:29;;;;;;;4.25;2.15;;;31.90;54.00;;;;;;5064793;28;20071;-91
2022/08/14 11:42:55;;;;;;;3.08;2.13;;;31.90;54.10;;;;;;5087840;28;20026;-91
2022/08/14 11:45:23;;;;;;;2.55;2.30;;;31.80;54.20;;;;;;5090478;28;20039;-91
2022/08/14 11:47:51;;;;;;;2.63;2.20;;;31.60;54.30;;;;;;5068982;28;20494;-91
2022/08/14 11:50:23;;;;;;;3.95;2.65;;;31.60;53.70;;;;;;5073356;28;20020;-90
2022/08/14 11:52:49;;;;;;;3.75;2.05;;;31.80;54.30;;;;;;5068883;28;20040;-90
2022/08/14 11:55:15;;;;;;;2.85;2.13;;;32.00;53.30;;;;;;5072353;28;20027;-90
2022/08/14 11:57:42;;;;;;;3.13;2.05;;;32.10;52.40;;;;;;5074950;28;20028;-90
2022/08/14 12:00:12;;;;;;;2.90;2.20;;;32.30;52.00;;;;;;5081937;28;20111;-90
2022/08/14 12:02:49;;;;;;;2.10;1.60;;;32.50;52.90;;;;;;5075989;28;20024;-90
2022/08/14 12:05:15;;;;;;;6.07;1.98;;;32.80;52.50;;;;;;5076200;28;20025;-89
2022/08/14 12:07:48;;;;;;;3.25;2.10;;;32.90;52.20;;;;;;5075612;28;20031;-92
2022/08/14 12:10:17;;;;;;;2.60;2.40;;;33.10;52.20;;;;;;5068912;28;20032;-95
2022/08/14 12:12:43;;;;;;;2.55;2.00;;;33.10;51.40;;;;;;5072534;28;20055;-92
2022/08/14 12:15:12;;;;;;;2.20;2.00;;;33.20;50.80;;;;;;5070933;28;20450;-90
2022/08/14 12:17:50;;;;;;;2.72;2.28;;;33.20;50.40;;;;;;5070638;28;20147;-90
2022/08/14 12:20:16;;;;;;;6.55;1.90;;;33.20;49.90;;;;;;5069975;28;20020;-91
2022/08/14 12:22:44;;;;;;;3.30;1.98;;;33.30;49.70;;;;;;5067236;28;20032;-89
2022/08/14 12:25:19;;;;;;;2.40;1.60;;;33.40;49.80;;;;;;5066205;28;20122;-93
2022/08/14 12:27:48;;;;;;;3.40;2.10;;;33.50;49.40;;;;;;5068109;28;20034;-89
2022/08/14 12:30:25;;;;;;;2.22;1.88;;;33.50;49.50;;;;;;5070149;28;20027;-89
2022/08/14 12:32:50;;;;;;;2.42;1.77;;;33.50;49.00;;;;;;5084093;28;20123;-90
2022/08/14 12:35:16;;;;;;;3.25;1.90;;;33.50;48.90;;;;;;5070234;28;20539;-92
2022/08/14 12:37:49;;;;;;;1.90;1.60;;;33.40;48.90;;;;;;5073650;28;20552;-93
2022/08/14 12:40:16;;;;;;;4.80;2.00;;;33.50;48.70;;;;;;5077959;28;20045;-91
2022/08/14 12:42:43;;;;;;;2.40;2.03;;;33.60;48.90;;;;;;5072012;28;20035;-90
2022/08/14 12:45:11;;;;;;;2.70;2.50;;;33.70;48.60;;;;;;5079159;28;20082;-90
2022/08/14 12:47:41;;;;;;;2.40;1.88;;;33.60;48.60;;;;;;5071018;28;20035;-89
2022/08/14 12:50:09;;;;;;;2.30;2.00;;;33.60;48.60;;;;;;5066470;28;20024;-90
2022/08/14 12:52:43;;;;;;;4.53;2.70;;;33.70;48.60;;;;;;5066539;28;20134;-90
2022/08/14 12:55:14;;;;;;;2.20;1.95;;;33.70;48.60;;;;;;5082953;28;20020;-91
2022/08/14 12:57:42;;;;;;;3.07;1.93;;;33.80;48.70;;;;;;5065065;28;20032;-91
2022/08/14 13:00:20;;;;;;;3.28;2.15;;;33.60;48.90;;;;;;5064643;28;20075;-91
2022/08/14 13:02:51;;;;;;;3.08;1.98;;;33.50;49.50;;;;;;5080770;28;20031;-91
2022/08/14 13:05:23;;;;;;;2.13;1.92;;;33.50;49.10;;;;;;5065061;28;20020;-91
2022/08/14 13:07:53;;;;;;;2.53;2.33;;;33.50;49.10;;;;;;5061926;28;20122;-93
2022/08/14 13:10:20;;;;;;;3.17;2.78;;;33.70;49.00;;;;;;5069671;28;20537;-92